Sinotrans Osaka — VRDM4 — position and weather

sailwx.info

Track history (hours):
 
Tides and Currents Weather Stations Pressure Air Temp Water Temp Dewpoint Dewpoint Depression Visibility Wind Speed Wind Dir Waves Ship Positions

Sinotrans Osaka

Last reported at 2018-Jan-18 17:59 UTC. Time now 2018-Jan-20 16:55 UTC.
Position N 31°46' E 121°03'.

Length 145 m; draft 6 m.

Type: Cargo ship. MMSI: 477107900.

Date/timePositionNaut miles runAvg speedWind from/ knotsBaromVisibWave heightAir tempDewpointWater temp
2018-Jan-18 17:59N 31°46' E 121°03'714.7
2018-Jan-18 17:30N 31°42' E 121°10'714.6
2018-Jan-18 17:00N 31°37' E 121°16'712.6
2018-Jan-18 16:28N 31°32' E 121°22'511.2
2018-Jan-18 16:00N 31°29' E 121°27'4 7.2
2018-Jan-18 15:27N 31°26' E 121°30'  
2018-Jan-12 14:59N 34°55' E 139°33'5 9.9
2018-Jan-12 14:28N 34°54' E 139°27'1914.7
2018-Jan-12 13:11N 34°41' E 139°10'315.3
2018-Jan-12 12:58N 34°38' E 139°07'815.5
2018-Jan-12 12:27N 34°32' E 139°01'715.6
2018-Jan-12 12:00N 34°31' E 138°53'1115.1
2018-Jan-12 11:18N 34°32' E 138°40'414.8
2018-Jan-12 11:00N 34°32' E 138°34'713.6
2018-Jan-12 10:28N 34°32' E 138°26'814.3
2018-Jan-12 09:54N 34°31' E 138°16'7012.8
2018-Jan-12 04:27N 34°39' E 136°51'612.8
2018-Jan-12 04:00N 34°43' E 136°47'613.0
2018-Jan-12 03:30N 34°50' E 136°45'612.8
2018-Jan-12 03:00N 34°56' E 136°46'611.8
2018-Jan-12 02:31N 35°02' E 136°48'0 0.3
2018-Jan-12 01:59N 35°01' E 136°48'0 0.0
2018-Jan-12 01:26N 35°01' E 136°48'0 0.0
2018-Jan-12 00:59N 35°01' E 136°48'0 0.0
2018-Jan-12 00:29N 35°01' E 136°48'0 0.0
2018-Jan-11 23:59N 35°01' E 136°48'0 0.0
2018-Jan-11 23:29N 35°01' E 136°48'0 0.0
2018-Jan-11 22:59N 35°01' E 136°48'0 0.0
2018-Jan-11 22:29N 35°01' E 136°48'0 0.6
2018-Jan-11 22:00N 35°01' E 136°48'4 8.0
2018-Jan-11 21:30N 34°58' E 136°46'612.1
2018-Jan-11 21:00N 34°52' E 136°47'611.9
2018-Jan-11 20:30N 34°46' E 136°48'612.5
2018-Jan-11 20:00N 34°40' E 136°52'612.3
2018-Jan-11 19:30N 34°36' E 136°57'3110.6
2018-Jan-11 16:36N 34°06' E 136°48'212.4
2018-Jan-11 16:27N 34°05' E 136°46'90 9.2
2018-Jan-11 06:40N 33°50' E 134°59'212.2
2018-Jan-11 06:30N 33°52' E 134°58'713.2
2018-Jan-11 06:00N 33°59' E 134°58'713.3
2018-Jan-11 05:30N 34°05' E 134°58'713.2
2018-Jan-11 05:01N 34°12' E 134°59'713.4
2018-Jan-11 04:30N 34°19' E 134°59'612.6
2018-Jan-11 04:00N 34°24' E 135°03'612.9
2018-Jan-11 03:30N 34°28' E 135°08'612.6
2018-Jan-11 03:00N 34°33' E 135°14'612.4
2018-Jan-11 02:30N 34°39' E 135°16'2 3.7
2018-Jan-11 02:00N 34°40' E 135°14'0 0.0
2018-Jan-11 01:30N 34°40' E 135°14'0 0.0
2018-Jan-11 01:00N 34°40' E 135°14'0 0.0
2018-Jan-11 00:30N 34°40' E 135°14'0 0.0
2018-Jan-11 00:00N 34°40' E 135°14'0 0.0
2018-Jan-10 23:30N 34°40' E 135°14'0 0.0
2018-Jan-10 23:00N 34°40' E 135°14'0 0.0
2018-Jan-10 22:30N 34°40' E 135°14'0 0.6
2018-Jan-10 22:00N 34°40' E 135°14'2 4.9
2018-Jan-10 21:31N 34°37' E 135°14'1 1.1
2018-Jan-10 21:00N 34°37' E 135°13'0 0.0
2018-Jan-10 20:30N 34°37' E 135°13'0 0.1
2018-Jan-10 20:00N 34°37' E 135°13'0 0.0
2018-Jan-10 19:30N 34°37' E 135°13'0 0.0
2018-Jan-10 19:00N 34°37' E 135°13'0 0.0
2018-Jan-10 18:30N 34°37' E 135°13'0 0.0
2018-Jan-10 18:00N 34°37' E 135°13'0 0.0
2018-Jan-10 17:30N 34°37' E 135°13'0 0.0
2018-Jan-10 17:00N 34°37' E 135°13'0 0.0
2018-Jan-10 16:30N 34°37' E 135°13'0 0.0
2018-Jan-10 16:00N 34°37' E 135°13'0 0.1
2018-Jan-10 15:30N 34°37' E 135°13'0 0.7
2018-Jan-10 15:00N 34°37' E 135°14'612.2
2018-Jan-10 14:30N 34°37' E 135°21'4 8.1
2018-Jan-10 14:01N 34°39' E 135°26'0 0.0
2018-Jan-10 13:29N 34°39' E 135°26'0 0.0
2018-Jan-10 12:59N 34°39' E 135°26'0 0.0
2018-Jan-10 12:29N 34°39' E 135°26'0 0.0
2018-Jan-10 11:59N 34°39' E 135°26'0 0.0
2018-Jan-10 11:29N 34°39' E 135°26'0 0.0
2018-Jan-10 10:59N 34°39' E 135°26'0 0.0
2018-Jan-10 10:29N 34°39' E 135°26'0 0.0
2018-Jan-10 09:59N 34°39' E 135°26'0 0.0
2018-Jan-10 09:29N 34°39' E 135°26'0 0.0
2018-Jan-10 08:59N 34°39' E 135°26'1 1.2
2018-Jan-10 08:31N 34°39' E 135°25'611.9
2018-Jan-10 08:00N 34°36' E 135°19'613.0
2018-Jan-10 07:31N 34°31' E 135°14'714.5
2018-Jan-10 07:00N 34°26' E 135°07'714.7
2018-Jan-10 06:30N 34°21' E 135°01'714.6
2018-Jan-10 06:00N 34°14' E 134°59'714.0
2018-Jan-10 05:31N 34°07' E 134°59'714.3
2018-Jan-10 05:01N 33°59' E 134°59'714.3
2018-Jan-10 04:31N 33°52' E 134°59'  
Track history (hours):
 
Tides and Currents Weather Stations Pressure Air Temp Water Temp Dewpoint Dewpoint Depression Visibility Wind Speed Wind Dir Waves Ship Positions

Sinotrans Osaka

Last reported at 2018-Jan-18 17:59 UTC. Time now 2018-Jan-20 16:55 UTC.
Position N 31°46' E 121°03'.

Length 145 m; draft 6 m.

Type: Cargo ship. MMSI: 477107900.

Date/timePositionNaut miles runAvg speedWind from/ knotsBaromVisibWave heightAir tempDewpointWater temp
2018-Jan-18 17:59N 31°46' E 121°03'714.7
2018-Jan-18 17:30N 31°42' E 121°10'714.6
2018-Jan-18 17:00N 31°37' E 121°16'712.6
2018-Jan-18 16:28N 31°32' E 121°22'511.2
2018-Jan-18 16:00N 31°29' E 121°27'4 7.2
2018-Jan-18 15:27N 31°26' E 121°30'  
2018-Jan-12 14:59N 34°55' E 139°33'5 9.9
2018-Jan-12 14:28N 34°54' E 139°27'1914.7
2018-Jan-12 13:11N 34°41' E 139°10'315.3
2018-Jan-12 12:58N 34°38' E 139°07'815.5
2018-Jan-12 12:27N 34°32' E 139°01'715.6
2018-Jan-12 12:00N 34°31' E 138°53'1115.1
2018-Jan-12 11:18N 34°32' E 138°40'414.8
2018-Jan-12 11:00N 34°32' E 138°34'713.6
2018-Jan-12 10:28N 34°32' E 138°26'814.3
2018-Jan-12 09:54N 34°31' E 138°16'7012.8
2018-Jan-12 04:27N 34°39' E 136°51'612.8
2018-Jan-12 04:00N 34°43' E 136°47'613.0
2018-Jan-12 03:30N 34°50' E 136°45'612.8
2018-Jan-12 03:00N 34°56' E 136°46'611.8
2018-Jan-12 02:31N 35°02' E 136°48'0 0.3
2018-Jan-12 01:59N 35°01' E 136°48'0 0.0
2018-Jan-12 01:26N 35°01' E 136°48'0 0.0
2018-Jan-12 00:59N 35°01' E 136°48'0 0.0
2018-Jan-12 00:29N 35°01' E 136°48'0 0.0
2018-Jan-11 23:59N 35°01' E 136°48'0 0.0
2018-Jan-11 23:29N 35°01' E 136°48'0 0.0
2018-Jan-11 22:59N 35°01' E 136°48'0 0.0
2018-Jan-11 22:29N 35°01' E 136°48'0 0.6
2018-Jan-11 22:00N 35°01' E 136°48'4 8.0
2018-Jan-11 21:30N 34°58' E 136°46'612.1
2018-Jan-11 21:00N 34°52' E 136°47'611.9
2018-Jan-11 20:30N 34°46' E 136°48'612.5
2018-Jan-11 20:00N 34°40' E 136°52'612.3
2018-Jan-11 19:30N 34°36' E 136°57'3110.6
2018-Jan-11 16:36N 34°06' E 136°48'212.4
2018-Jan-11 16:27N 34°05' E 136°46'90 9.2
2018-Jan-11 06:40N 33°50' E 134°59'212.2
2018-Jan-11 06:30N 33°52' E 134°58'713.2
2018-Jan-11 06:00N 33°59' E 134°58'713.3
2018-Jan-11 05:30N 34°05' E 134°58'713.2
2018-Jan-11 05:01N 34°12' E 134°59'713.4
2018-Jan-11 04:30N 34°19' E 134°59'612.6
2018-Jan-11 04:00N 34°24' E 135°03'612.9
2018-Jan-11 03:30N 34°28' E 135°08'612.6
2018-Jan-11 03:00N 34°33' E 135°14'612.4
2018-Jan-11 02:30N 34°39' E 135°16'2 3.7
2018-Jan-11 02:00N 34°40' E 135°14'0 0.0
2018-Jan-11 01:30N 34°40' E 135°14'0 0.0
2018-Jan-11 01:00N 34°40' E 135°14'0 0.0
2018-Jan-11 00:30N 34°40' E 135°14'0 0.0
2018-Jan-11 00:00N 34°40' E 135°14'0 0.0
2018-Jan-10 23:30N 34°40' E 135°14'0 0.0
2018-Jan-10 23:00N 34°40' E 135°14'0 0.0
2018-Jan-10 22:30N 34°40' E 135°14'0 0.6
2018-Jan-10 22:00N 34°40' E 135°14'2 4.9
2018-Jan-10 21:31N 34°37' E 135°14'1 1.1
2018-Jan-10 21:00N 34°37' E 135°13'0 0.0
2018-Jan-10 20:30N 34°37' E 135°13'0 0.1
2018-Jan-10 20:00N 34°37' E 135°13'0 0.0
2018-Jan-10 19:30N 34°37' E 135°13'0 0.0
2018-Jan-10 19:00N 34°37' E 135°13'0 0.0
2018-Jan-10 18:30N 34°37' E 135°13'0 0.0
2018-Jan-10 18:00N 34°37' E 135°13'0 0.0
2018-Jan-10 17:30N 34°37' E 135°13'0 0.0
2018-Jan-10 17:00N 34°37' E 135°13'0 0.0
2018-Jan-10 16:30N 34°37' E 135°13'0 0.0
2018-Jan-10 16:00N 34°37' E 135°13'0 0.1
2018-Jan-10 15:30N 34°37' E 135°13'0 0.7
2018-Jan-10 15:00N 34°37' E 135°14'612.2
2018-Jan-10 14:30N 34°37' E 135°21'4 8.1
2018-Jan-10 14:01N 34°39' E 135°26'0 0.0
2018-Jan-10 13:29N 34°39' E 135°26'0 0.0
2018-Jan-10 12:59N 34°39' E 135°26'0 0.0
2018-Jan-10 12:29N 34°39' E 135°26'0 0.0
2018-Jan-10 11:59N 34°39' E 135°26'0 0.0
2018-Jan-10 11:29N 34°39' E 135°26'0 0.0
2018-Jan-10 10:59N 34°39' E 135°26'0 0.0
2018-Jan-10 10:29N 34°39' E 135°26'0 0.0
2018-Jan-10 09:59N 34°39' E 135°26'0 0.0
2018-Jan-10 09:29N 34°39' E 135°26'0 0.0
2018-Jan-10 08:59N 34°39' E 135°26'1 1.2
2018-Jan-10 08:31N 34°39' E 135°25'611.9
2018-Jan-10 08:00N 34°36' E 135°19'613.0
2018-Jan-10 07:31N 34°31' E 135°14'714.5
2018-Jan-10 07:00N 34°26' E 135°07'714.7
2018-Jan-10 06:30N 34°21' E 135°01'714.6
2018-Jan-10 06:00N 34°14' E 134°59'714.0
2018-Jan-10 05:31N 34°07' E 134°59'714.3
2018-Jan-10 05:01N 33°59' E 134°59'714.3
2018-Jan-10 04:31N 33°52' E 134°59'  

Dump ship's entire track history